Terminal Aerodrome Forecast
Issued by NWS Twin Cities, MN

Home | Current Version | Previous Version | Graphics & Text | Print | Product List | Glossary On
Versions: 1 2 3 4 5 6 7 8 9 10 11 12 13 14 15 16 17 18 19 20 21 22 23 24
670
FTUS43 KMPX 171448 AAA
TAFMSP
TAF AMD
KMSP 171448Z 1715/1818 15005KT P6SM SKC
     FM172000 18007KT P6SM SKC
     FM180000 24005KT P6SM FEW200
     FM180200 28007KT P6SM SCT200
     FM181100 29005KT P6SM SCT050=

USA.gov is the U.S. government's official web portal to all federal, state and local government web resources and services.